createdAt,value
2022-12-18T00:00:04.749Z,442.87
2022-12-18T00:00:16.772Z,442.87
2022-12-18T00:00:28.759Z,442.88
2022-12-18T00:00:40.779Z,442.87
2022-12-18T00:00:51.788Z,442.84
2022-12-18T00:01:03.779Z,442.81
2022-12-18T00:01:15.825Z,442.81
2022-12-18T00:01:27.822Z,442.80
2022-12-18T00:01:38.818Z,442.79
2022-12-18T00:01:49.862Z,442.73
2022-12-18T00:02:01.840Z,442.67
2022-12-18T00:02:13.784Z,442.67
2022-12-18T00:02:25.806Z,442.66
2022-12-18T00:02:37.966Z,442.64
2022-12-18T00:02:48.939Z,442.62
2022-12-18T00:03:00.911Z,442.58
2022-12-18T00:03:11.848Z,442.55
2022-12-18T00:03:22.864Z,442.57
2022-12-18T00:03:33.843Z,442.58
2022-12-18T00:03:45.447Z,442.53
2022-12-18T00:03:56.940Z,442.54
2022-12-18T00:04:09.021Z,442.57
2022-12-18T00:04:20.159Z,442.55
2022-12-18T00:04:31.870Z,442.56
2022-12-18T00:04:43.810Z,442.56
2022-12-18T00:04:55.811Z,442.61
2022-12-18T00:05:07.812Z,442.63
2022-12-18T00:05:19.828Z,442.67
2022-12-18T00:05:30.779Z,442.68
2022-12-18T00:05:42.796Z,442.76
2022-12-18T00:05:54.799Z,442.77
2022-12-18T00:06:06.800Z,442.79
2022-12-18T00:06:18.791Z,442.82
2022-12-18T00:06:29.753Z,442.85
2022-12-18T00:06:41.776Z,442.89
2022-12-18T00:06:53.810Z,442.92
2022-12-18T00:07:04.754Z,442.93
2022-12-18T00:07:16.764Z,442.96
2022-12-18T00:07:28.780Z,442.97
2022-12-18T00:07:40.783Z,443.00
2022-12-18T00:07:52.780Z,443.00
2022-12-18T00:08:04.777Z,443.00
2022-12-18T00:08:16.777Z,443.05
2022-12-18T00:08:28.792Z,443.07
2022-12-18T00:08:39.771Z,443.05
2022-12-18T00:08:51.782Z,443.05
2022-12-18T00:09:03.793Z,443.07
2022-12-18T00:09:15.759Z,443.03
2022-12-18T00:09:31.322Z,443.03
2022-12-18T00:09:40.646Z,442.98
2022-12-18T00:09:49.822Z,442.98
2022-12-18T00:10:01.735Z,443.01
2022-12-18T00:10:15.286Z,443.01
2022-12-18T00:10:24.773Z,442.97
2022-12-18T00:10:36.786Z,442.98
2022-12-18T00:10:48.790Z,442.98
2022-12-18T00:11:01.595Z,442.96
2022-12-18T00:11:13.792Z,443.02
2022-12-18T00:11:23.753Z,442.98
2022-12-18T00:11:35.792Z,442.99
2022-12-18T00:11:47.801Z,443.02
2022-12-18T00:11:59.805Z,443.02
2022-12-18T00:12:23.823Z,442.95
2022-12-18T00:12:35.819Z,443.01
2022-12-18T00:12:47.825Z,443.03
2022-12-18T00:13:02.585Z,443.02
2022-12-18T00:13:11.720Z,443.02
2022-12-18T00:13:21.820Z,442.98
2022-12-18T00:13:33.819Z,443.00
2022-12-18T00:13:45.819Z,442.98
2022-12-18T00:13:57.712Z,442.98
2022-12-18T00:14:08.803Z,442.96
2022-12-18T00:14:20.804Z,442.94
2022-12-18T00:14:31.773Z,442.91
2022-12-18T00:14:43.779Z,442.87
2022-12-18T00:14:55.782Z,442.80
2022-12-18T00:15:07.764Z,442.79
2022-12-18T00:15:19.800Z,442.75
2022-12-18T00:15:31.813Z,442.68
2022-12-18T00:15:43.852Z,442.58
2022-12-18T00:15:56.601Z,442.54
2022-12-18T00:16:07.827Z,442.45
2022-12-18T00:16:19.818Z,442.40
2022-12-18T00:16:31.817Z,442.37
2022-12-18T00:16:43.756Z,442.31
2022-12-18T00:16:55.752Z,442.24
2022-12-18T00:17:06.821Z,442.21
2022-12-18T00:17:18.785Z,442.17
2022-12-18T00:17:30.780Z,442.17
2022-12-18T00:17:41.777Z,442.13
2022-12-18T00:17:53.779Z,442.10
2022-12-18T00:18:05.793Z,442.07
2022-12-18T00:18:20.735Z,442.04
2022-12-18T00:18:29.777Z,442.06
2022-12-18T00:18:41.101Z,442.07
2022-12-18T00:18:51.783Z,442.06
2022-12-18T00:19:02.750Z,442.02
2022-12-18T00:19:13.727Z,442.03
2022-12-18T00:19:24.809Z,442.02
2022-12-18T00:19:36.813Z,442.02
2022-12-18T00:19:48.815Z,442.04
2022-12-18T00:20:00.727Z,442.04
2022-12-18T00:20:11.813Z,442.02
2022-12-18T00:20:23.817Z,442.05
2022-12-18T00:20:35.820Z,442.08
2022-12-18T00:20:47.775Z,442.08
2022-12-18T00:20:59.777Z,442.12
2022-12-18T00:21:11.779Z,442.14
2022-12-18T00:21:23.778Z,442.15
2022-12-18T00:21:35.778Z,442.12
2022-12-18T00:21:47.779Z,442.13
2022-12-18T00:21:59.784Z,442.12
2022-12-18T00:22:11.794Z,442.12
2022-12-18T00:22:23.784Z,442.12
2022-12-18T00:22:35.808Z,442.15
2022-12-18T00:22:47.817Z,442.10
2022-12-18T00:22:59.760Z,442.09
2022-12-18T00:23:11.786Z,442.08
2022-12-18T00:23:22.758Z,442.02
2022-12-18T00:23:34.966Z,442.04
2022-12-18T00:23:46.757Z,442.00
2022-12-18T00:23:58.761Z,441.99
2022-12-18T00:24:10.775Z,441.96
2022-12-18T00:24:22.771Z,441.95
2022-12-18T00:24:34.778Z,441.94
2022-12-18T00:24:46.772Z,441.92
2022-12-18T00:24:57.737Z,441.88
2022-12-18T00:25:08.783Z,441.87
2022-12-18T00:25:20.790Z,441.82
2022-12-18T00:25:32.801Z,441.79
2022-12-18T00:25:44.801Z,441.78
2022-12-18T00:25:56.801Z,441.75
2022-12-18T00:26:08.811Z,441.73
2022-12-18T00:26:20.734Z,441.70
2022-12-18T00:26:32.748Z,441.68
2022-12-18T00:26:44.755Z,441.66
2022-12-18T00:26:56.766Z,441.64
2022-12-18T00:27:08.778Z,441.63
2022-12-18T00:27:20.773Z,441.62
2022-12-18T00:27:32.780Z,441.57
2022-12-18T00:27:44.794Z,441.57
2022-12-18T00:27:56.800Z,441.54
2022-12-18T00:28:08.804Z,441.56
2022-12-18T00:28:19.781Z,441.54
2022-12-18T00:28:31.795Z,441.48
2022-12-18T00:28:43.806Z,441.42
2022-12-18T00:28:55.820Z,441.40
2022-12-18T00:29:07.820Z,441.37
2022-12-18T00:29:19.822Z,441.37
2022-12-18T00:29:31.814Z,441.28
2022-12-18T00:29:43.821Z,441.24
2022-12-18T00:29:55.718Z,441.24
2022-12-18T00:30:06.795Z,441.20
2022-12-18T00:30:18.814Z,441.20
2022-12-18T00:30:30.724Z,441.14
2022-12-18T00:30:41.829Z,441.08
2022-12-18T00:30:53.721Z,441.08
2022-12-18T00:31:04.825Z,441.01
2022-12-18T00:31:16.852Z,441.01
2022-12-18T00:31:28.834Z,441.00
2022-12-18T00:31:40.872Z,440.99
2022-12-18T00:31:51.799Z,440.85
2022-12-18T00:32:02.916Z,440.91
2022-12-18T00:32:14.823Z,440.89
2022-12-18T00:32:26.725Z,440.88
2022-12-18T00:32:37.781Z,440.85
2022-12-18T00:32:49.778Z,440.80
2022-12-18T00:33:00.734Z,440.83
2022-12-18T00:33:11.794Z,440.78
2022-12-18T00:33:23.804Z,440.78
2022-12-18T00:33:35.994Z,440.76
2022-12-18T00:33:47.743Z,440.80
2022-12-18T00:33:59.754Z,440.76
2022-12-18T00:34:11.760Z,440.75
2022-12-18T00:34:22.826Z,440.73
2022-12-18T00:34:34.725Z,440.72
2022-12-18T00:34:45.805Z,440.72
2022-12-18T00:34:57.812Z,440.73
2022-12-18T00:35:09.799Z,440.75
2022-12-18T00:35:21.818Z,440.77
2022-12-18T00:35:33.820Z,440.78
2022-12-18T00:35:44.787Z,440.76
2022-12-18T00:35:55.740Z,440.75
2022-12-18T00:36:06.776Z,440.74
2022-12-18T00:36:18.780Z,440.71
2022-12-18T00:36:30.780Z,440.73
2022-12-18T00:36:42.782Z,440.75
2022-12-18T00:36:54.783Z,440.81
2022-12-18T00:37:06.795Z,440.83
2022-12-18T00:37:20.189Z,440.79
2022-12-18T00:37:29.750Z,440.79
2022-12-18T00:37:40.773Z,440.80
2022-12-18T00:37:52.773Z,440.83
2022-12-18T00:38:04.775Z,440.87
2022-12-18T00:38:16.794Z,440.88
2022-12-18T00:38:27.752Z,440.92
2022-12-18T00:38:38.756Z,440.93
2022-12-18T00:38:50.773Z,440.95
2022-12-18T00:39:02.775Z,440.96
2022-12-18T00:39:13.719Z,440.99
2022-12-18T00:39:24.794Z,441.00
2022-12-18T00:39:35.755Z,440.99
2022-12-18T00:39:47.763Z,441.01
2022-12-18T00:39:59.760Z,440.98
2022-12-18T00:40:11.737Z,440.99
2022-12-18T00:40:22.762Z,440.99
2022-12-18T00:40:34.761Z,440.99
2022-12-18T00:40:46.762Z,440.97
2022-12-18T00:40:58.761Z,440.98
2022-12-18T00:41:10.760Z,440.93
2022-12-18T00:41:22.770Z,440.92
2022-12-18T00:41:34.776Z,440.91
2022-12-18T00:41:47.583Z,440.90
2022-12-18T00:41:58.770Z,440.89
2022-12-18T00:42:10.778Z,440.85
2022-12-18T00:42:22.779Z,440.80
2022-12-18T00:42:34.796Z,440.76
2022-12-18T00:42:46.796Z,440.75
2022-12-18T00:42:58.803Z,440.67
2022-12-18T00:43:10.813Z,440.63
2022-12-18T00:43:22.819Z,440.62
2022-12-18T00:43:33.783Z,440.56
2022-12-18T00:43:44.737Z,440.50
2022-12-18T00:43:55.779Z,440.50
2022-12-18T00:44:07.787Z,440.46
2022-12-18T00:44:19.803Z,440.38
2022-12-18T00:44:31.757Z,440.35
2022-12-18T00:44:43.767Z,440.26
2022-12-18T00:44:54.741Z,440.24
2022-12-18T00:45:12.277Z,440.21
2022-12-18T00:45:18.743Z,440.17
2022-12-18T00:45:28.883Z,440.14
2022-12-18T00:45:40.791Z,440.11
2022-12-18T00:45:51.779Z,440.08
2022-12-18T00:46:02.793Z,440.03
2022-12-18T00:46:14.773Z,440.03
2022-12-18T00:46:25.752Z,439.99
2022-12-18T00:46:37.764Z,439.98
2022-12-18T00:46:49.774Z,439.92
2022-12-18T00:47:01.772Z,439.87
2022-12-18T00:47:12.752Z,439.84
2022-12-18T00:47:24.760Z,439.81
2022-12-18T00:47:36.759Z,439.82
2022-12-18T00:47:48.762Z,439.76
2022-12-18T00:48:00.764Z,439.77
2022-12-18T00:48:12.764Z,439.76
2022-12-18T00:48:23.743Z,439.75
2022-12-18T00:48:35.748Z,439.73
2022-12-18T00:48:47.763Z,439.73
2022-12-18T00:48:59.761Z,439.69
2022-12-18T00:49:11.762Z,439.69
2022-12-18T00:49:23.798Z,439.71
2022-12-18T00:49:34.742Z,439.69
2022-12-18T00:49:46.744Z,439.74
2022-12-18T00:49:58.750Z,439.74
2022-12-18T00:50:10.759Z,439.79
2022-12-18T00:50:22.756Z,439.79
2022-12-18T00:50:34.771Z,439.78
2022-12-18T00:50:46.759Z,439.81
2022-12-18T00:50:58.783Z,439.83
2022-12-18T00:51:10.786Z,439.82
2022-12-18T00:51:22.773Z,439.84
2022-12-18T00:51:34.789Z,439.82
2022-12-18T00:51:46.780Z,439.82
2022-12-18T00:51:58.800Z,439.85
2022-12-18T00:52:10.801Z,439.90
2022-12-18T00:52:21.761Z,439.91
2022-12-18T00:52:33.766Z,439.94
2022-12-18T00:52:45.765Z,439.96
2022-12-18T00:52:57.768Z,440.01
2022-12-18T00:53:09.770Z,440.01
2022-12-18T00:53:21.778Z,440.03
2022-12-18T00:53:33.792Z,440.07
2022-12-18T00:53:45.800Z,440.09
2022-12-18T00:53:57.804Z,440.13
2022-12-18T00:54:09.810Z,440.20
2022-12-18T00:54:21.811Z,440.18
2022-12-18T00:54:33.807Z,440.21
2022-12-18T00:54:45.739Z,440.26
2022-12-18T00:54:58.101Z,440.29
2022-12-18T00:55:08.762Z,440.28
2022-12-18T00:55:20.765Z,440.25
2022-12-18T00:55:32.762Z,440.31
2022-12-18T00:55:44.761Z,440.30
2022-12-18T00:55:56.774Z,440.33
2022-12-18T00:56:08.770Z,440.31
2022-12-18T00:56:20.782Z,440.31
2022-12-18T00:56:32.785Z,440.35
2022-12-18T00:56:49.454Z,440.36
2022-12-18T00:56:55.726Z,440.35
2022-12-18T00:57:05.733Z,440.34
2022-12-18T00:57:16.760Z,440.34
2022-12-18T00:57:28.765Z,440.34
2022-12-18T00:57:40.764Z,440.34
2022-12-18T00:57:51.760Z,440.39
2022-12-18T00:58:02.811Z,440.40
2022-12-18T00:58:14.760Z,440.41
2022-12-18T00:58:26.765Z,440.38
2022-12-18T00:58:37.742Z,440.42
2022-12-18T00:58:48.780Z,440.41
2022-12-18T00:59:00.791Z,440.40
2022-12-18T00:59:12.777Z,440.42
2022-12-18T00:59:24.800Z,440.40
2022-12-18T00:59:36.802Z,440.39
2022-12-18T00:59:48.815Z,440.41
2022-12-18T01:00:00.820Z,440.43
2022-12-18T01:00:12.820Z,440.44
2022-12-18T01:00:24.833Z,440.42
2022-12-18T01:00:36.818Z,440.47
2022-12-18T01:00:47.845Z,440.49
2022-12-18T01:00:59.799Z,440.50
2022-12-18T01:01:10.840Z,440.51
2022-12-18T01:01:22.937Z,440.55
2022-12-18T01:01:33.906Z,440.56
2022-12-18T01:01:46.068Z,440.54
2022-12-18T01:01:56.842Z,440.54
2022-12-18T01:02:08.889Z,440.52
2022-12-18T01:02:19.848Z,440.54
2022-12-18T01:02:30.892Z,440.51
2022-12-18T01:02:42.914Z,440.51
2022-12-18T01:02:53.885Z,440.51
2022-12-18T01:03:04.808Z,440.47
2022-12-18T01:03:15.875Z,440.45
2022-12-18T01:03:26.779Z,440.37
2022-12-18T01:03:39.198Z,440.34
2022-12-18T01:03:50.808Z,440.27
2022-12-18T01:04:01.776Z,440.26
2022-12-18T01:04:13.821Z,440.21
2022-12-18T01:04:24.760Z,440.15
2022-12-18T01:04:36.773Z,440.13
2022-12-18T01:04:48.783Z,440.12
2022-12-18T01:05:00.787Z,440.07
2022-12-18T01:05:12.796Z,440.03
2022-12-18T01:05:24.827Z,439.94
2022-12-18T01:05:35.779Z,439.93
2022-12-18T01:05:47.774Z,439.87
2022-12-18T01:05:59.783Z,439.80
2022-12-18T01:06:11.787Z,439.79
2022-12-18T01:06:23.805Z,439.77
2022-12-18T01:06:35.764Z,439.74
2022-12-18T01:06:47.771Z,439.68
2022-12-18T01:06:59.774Z,439.65
2022-12-18T01:07:11.776Z,439.65
2022-12-18T01:07:23.775Z,439.61
2022-12-18T01:07:35.799Z,439.62
2022-12-18T01:07:47.795Z,439.59
2022-12-18T01:07:58.751Z,439.57
2022-12-18T01:08:10.750Z,439.52
2022-12-18T01:08:22.764Z,439.51
2022-12-18T01:08:33.724Z,439.55
2022-12-18T01:08:44.772Z,439.55
2022-12-18T01:08:56.795Z,439.57
2022-12-18T01:09:08.794Z,439.54
2022-12-18T01:09:20.797Z,439.54
2022-12-18T01:09:32.798Z,439.53
2022-12-18T01:09:44.803Z,439.54
2022-12-18T01:09:56.808Z,439.50
2022-12-18T01:10:08.811Z,439.48
2022-12-18T01:10:19.779Z,439.47
2022-12-18T01:10:31.781Z,439.44
2022-12-18T01:10:43.801Z,439.45
2022-12-18T01:10:55.801Z,439.46
2022-12-18T01:11:07.802Z,439.41
2022-12-18T01:11:19.796Z,439.40
2022-12-18T01:11:31.814Z,439.36
2022-12-18T01:11:43.821Z,439.35
2022-12-18T01:11:55.737Z,439.30
2022-12-18T01:12:07.742Z,439.29
2022-12-18T01:12:19.753Z,439.27
2022-12-18T01:12:31.761Z,439.21
2022-12-18T01:12:42.736Z,439.21
2022-12-18T01:12:53.796Z,439.17
2022-12-18T01:13:05.799Z,439.16
2022-12-18T01:13:17.799Z,439.11
2022-12-18T01:13:29.828Z,439.13
2022-12-18T01:13:41.058Z,439.08
2022-12-18T01:13:51.780Z,439.03
2022-12-18T01:14:03.784Z,439.04
2022-12-18T01:14:15.798Z,438.96
2022-12-18T01:14:26.762Z,438.99
2022-12-18T01:14:38.757Z,438.94
2022-12-18T01:14:49.731Z,438.96
2022-12-18T01:15:01.790Z,438.94
2022-12-18T01:15:12.735Z,438.94
2022-12-18T01:15:23.782Z,438.89
2022-12-18T01:15:35.780Z,438.86
2022-12-18T01:15:47.780Z,438.87
2022-12-18T01:15:58.814Z,438.87
2022-12-18T01:16:10.803Z,438.86
2022-12-18T01:16:21.828Z,438.85
2022-12-18T01:16:33.801Z,438.80
2022-12-18T01:16:45.791Z,438.77
2022-12-18T01:16:56.764Z,438.77
2022-12-18T01:17:08.766Z,438.73
2022-12-18T01:17:20.775Z,438.74
2022-12-18T01:17:32.781Z,438.76
2022-12-18T01:17:43.739Z,438.74
2022-12-18T01:17:54.792Z,438.71
2022-12-18T01:18:05.768Z,438.71
2022-12-18T01:18:17.775Z,438.68
2022-12-18T01:18:29.772Z,438.67
2022-12-18T01:18:40.771Z,438.66
2022-12-18T01:18:52.776Z,438.66
2022-12-18T01:19:04.787Z,438.68
2022-12-18T01:19:16.802Z,438.70
2022-12-18T01:19:28.804Z,438.72
2022-12-18T01:19:40.810Z,438.72
2022-12-18T01:19:52.814Z,438.69
2022-12-18T01:20:04.818Z,438.73
2022-12-18T01:20:16.796Z,438.72
2022-12-18T01:20:28.801Z,438.73
2022-12-18T01:20:40.726Z,438.73
2022-12-18T01:20:51.804Z,438.72
2022-12-18T01:21:03.804Z,438.74
2022-12-18T01:21:15.800Z,438.77
2022-12-18T01:21:26.775Z,438.78
2022-12-18T01:21:38.782Z,438.78
2022-12-18T01:21:50.777Z,438.75
2022-12-18T01:22:02.782Z,438.76
2022-12-18T01:22:14.794Z,438.79
2022-12-18T01:22:25.764Z,438.80
2022-12-18T01:22:36.726Z,438.82
2022-12-18T01:22:47.817Z,438.85
2022-12-18T01:22:59.724Z,438.88
2022-12-18T01:23:10.816Z,438.89
2022-12-18T01:23:22.726Z,438.89
2022-12-18T01:23:33.772Z,438.95
2022-12-18T01:23:45.784Z,438.99
2022-12-18T01:23:56.737Z,439.00
2022-12-18T01:24:08.742Z,439.04
2022-12-18T01:24:19.783Z,439.09
2022-12-18T01:24:30.785Z,439.15
2022-12-18T01:24:42.795Z,439.16
2022-12-18T01:24:54.801Z,439.19
2022-12-18T01:25:06.794Z,439.19
2022-12-18T01:25:18.793Z,439.24
2022-12-18T01:25:30.794Z,439.25
2022-12-18T01:25:42.798Z,439.30
2022-12-18T01:25:54.808Z,439.32
2022-12-18T01:26:06.741Z,439.33
2022-12-18T01:26:17.778Z,439.37
2022-12-18T01:26:28.740Z,439.40
2022-12-18T01:26:39.785Z,439.40
2022-12-18T01:26:51.775Z,439.51
2022-12-18T01:27:03.798Z,439.55
2022-12-18T01:27:15.796Z,439.56
2022-12-18T01:27:27.801Z,439.57
2022-12-18T01:27:39.757Z,439.60
2022-12-18T01:27:51.755Z,439.67
2022-12-18T01:28:02.758Z,439.72
2022-12-18T01:28:14.754Z,439.72
2022-12-18T01:28:26.760Z,439.77
2022-12-18T01:28:38.764Z,439.78
2022-12-18T01:28:49.740Z,439.79
2022-12-18T01:29:00.781Z,439.84
2022-12-18T01:29:12.796Z,439.87
2022-12-18T01:29:24.804Z,439.88
2022-12-18T01:29:36.753Z,439.88
2022-12-18T01:29:48.762Z,439.91
2022-12-18T01:30:00.767Z,439.93
2022-12-18T01:30:12.776Z,439.96
2022-12-18T01:30:24.783Z,439.91
2022-12-18T01:30:36.785Z,439.84
2022-12-18T01:30:48.787Z,439.86
2022-12-18T01:31:01.627Z,439.84
2022-12-18T01:31:12.818Z,439.79
2022-12-18T01:31:23.842Z,439.74
2022-12-18T01:31:35.844Z,439.72
2022-12-18T01:31:46.807Z,439.71
2022-12-18T01:31:57.788Z,439.69
2022-12-18T01:32:08.793Z,439.64
2022-12-18T01:32:20.746Z,439.63
2022-12-18T01:32:32.764Z,439.58
2022-12-18T01:32:43.820Z,439.56
2022-12-18T01:32:55.748Z,439.56
2022-12-18T01:33:06.806Z,439.51
2022-12-18T01:33:17.772Z,439.48
2022-12-18T01:33:29.775Z,439.45
2022-12-18T01:33:41.164Z,439.38
2022-12-18T01:33:51.748Z,439.34
2022-12-18T01:34:03.764Z,439.30
2022-12-18T01:34:15.775Z,439.28
2022-12-18T01:34:26.756Z,439.24
2022-12-18T01:34:38.740Z,439.24
2022-12-18T01:34:50.766Z,439.20
2022-12-18T01:35:02.779Z,439.18
2022-12-18T01:35:14.777Z,439.12
2022-12-18T01:35:26.790Z,439.11
2022-12-18T01:35:38.795Z,439.09
2022-12-18T01:35:50.816Z,439.10
2022-12-18T01:36:02.704Z,439.09
2022-12-18T01:36:13.802Z,439.09
2022-12-18T01:36:25.723Z,439.05
2022-12-18T01:36:36.802Z,438.97
2022-12-18T01:36:47.762Z,438.96
2022-12-18T01:36:59.754Z,438.93
2022-12-18T01:37:10.751Z,438.95
2022-12-18T01:37:22.763Z,438.94
2022-12-18T01:37:34.770Z,438.89
2022-12-18T01:37:46.776Z,438.91
2022-12-18T01:37:58.781Z,438.89
2022-12-18T01:38:10.807Z,438.85
2022-12-18T01:38:21.752Z,438.80
2022-12-18T01:38:33.754Z,438.79
2022-12-18T01:38:45.770Z,438.68
2022-12-18T01:38:57.782Z,438.71
2022-12-18T01:39:09.804Z,438.72
2022-12-18T01:39:21.821Z,438.67
2022-12-18T01:39:33.798Z,438.65
2022-12-18T01:39:45.805Z,438.62
2022-12-18T01:39:57.803Z,438.58
2022-12-18T01:40:09.819Z,438.52
2022-12-18T01:40:20.775Z,438.50
2022-12-18T01:40:32.788Z,438.49
2022-12-18T01:40:44.834Z,438.43
2022-12-18T01:40:55.782Z,438.41
2022-12-18T01:41:07.787Z,438.38
2022-12-18T01:41:19.801Z,438.32
2022-12-18T01:41:31.750Z,438.27
2022-12-18T01:41:43.763Z,438.22
2022-12-18T01:41:54.738Z,438.19
2022-12-18T01:42:05.783Z,438.15
2022-12-18T01:42:16.755Z,438.11
2022-12-18T01:42:28.754Z,438.07
2022-12-18T01:42:40.755Z,438.05
2022-12-18T01:42:52.755Z,437.98
2022-12-18T01:43:04.759Z,437.92
2022-12-18T01:43:15.821Z,437.91
2022-12-18T01:43:27.782Z,437.83
2022-12-18T01:43:40.093Z,437.75
2022-12-18T01:43:51.784Z,437.76
2022-12-18T01:44:03.798Z,437.70
2022-12-18T01:44:15.772Z,437.68
2022-12-18T01:44:27.788Z,437.62
2022-12-18T01:44:39.791Z,437.55
2022-12-18T01:44:50.783Z,437.53
2022-12-18T01:45:02.779Z,437.52
2022-12-18T01:45:14.801Z,437.49
2022-12-18T01:45:25.914Z,437.48
2022-12-18T01:45:36.812Z,437.45
2022-12-18T01:45:48.797Z,437.40
2022-12-18T01:45:59.820Z,437.40
2022-12-18T01:46:10.762Z,437.41
2022-12-18T01:46:21.828Z,437.35
2022-12-18T01:46:32.734Z,437.31
2022-12-18T01:46:43.810Z,437.27
2022-12-18T01:46:55.818Z,437.23
2022-12-18T01:47:07.819Z,437.22
2022-12-18T01:47:19.752Z,437.24
2022-12-18T01:47:31.762Z,437.21
2022-12-18T01:47:43.757Z,437.17
2022-12-18T01:47:54.728Z,437.16
2022-12-18T01:48:05.785Z,437.12
2022-12-18T01:48:16.743Z,437.15
2022-12-18T01:48:27.759Z,437.11
2022-12-18T01:48:39.762Z,437.12
2022-12-18T01:48:51.751Z,437.12
2022-12-18T01:49:03.783Z,437.12
2022-12-18T01:49:15.778Z,437.12
2022-12-18T01:49:27.754Z,437.17
2022-12-18T01:49:39.752Z,437.14
2022-12-18T01:49:51.731Z,437.14
2022-12-18T01:50:03.758Z,437.16
2022-12-18T01:50:14.726Z,437.14
2022-12-18T01:50:26.752Z,437.18
2022-12-18T01:50:37.740Z,437.19
2022-12-18T01:50:48.798Z,437.21
2022-12-18T01:50:59.764Z,437.20
2022-12-18T01:51:11.777Z,437.25
2022-12-18T01:51:23.774Z,437.29
2022-12-18T01:51:35.781Z,437.34
2022-12-18T01:51:47.786Z,437.38
2022-12-18T01:51:59.781Z,437.43
2022-12-18T01:52:11.783Z,437.45
2022-12-18T01:52:23.784Z,437.50
2022-12-18T01:52:35.786Z,437.59
2022-12-18T01:52:46.744Z,437.60
2022-12-18T01:52:58.751Z,437.67
2022-12-18T01:53:10.759Z,437.71
2022-12-18T01:53:22.773Z,437.76
2022-12-18T01:53:34.872Z,437.82
2022-12-18T01:53:45.772Z,437.85
2022-12-18T01:53:56.814Z,437.88
2022-12-18T01:54:08.823Z,437.89
2022-12-18T01:54:20.737Z,437.95
2022-12-18T01:54:31.786Z,437.95
2022-12-18T01:54:43.801Z,437.95
2022-12-18T01:54:55.813Z,437.97
2022-12-18T01:55:07.816Z,437.94
2022-12-18T01:55:19.778Z,437.96
2022-12-18T01:55:31.796Z,437.97
2022-12-18T01:55:43.792Z,437.96
2022-12-18T01:55:55.799Z,437.95
2022-12-18T01:56:07.806Z,437.96
2022-12-18T01:56:19.816Z,437.92
2022-12-18T01:56:30.772Z,437.90
2022-12-18T01:56:42.775Z,437.87
2022-12-18T01:56:54.776Z,437.82
2022-12-18T01:57:06.763Z,437.82
2022-12-18T01:57:18.781Z,437.80
2022-12-18T01:57:30.743Z,437.75
2022-12-18T01:57:41.784Z,437.70
2022-12-18T01:57:53.820Z,437.67
2022-12-18T01:58:05.732Z,437.66
2022-12-18T01:58:16.727Z,437.66
2022-12-18T01:58:27.802Z,437.62
2022-12-18T01:58:39.753Z,437.63
2022-12-18T01:58:51.767Z,437.62
2022-12-18T01:59:03.776Z,437.60
2022-12-18T01:59:15.776Z,437.56
2022-12-18T01:59:27.783Z,437.54
2022-12-18T01:59:39.788Z,437.50
2022-12-18T01:59:51.818Z,437.47
2022-12-18T02:00:03.815Z,437.45
2022-12-18T02:00:15.733Z,437.39
2022-12-18T02:00:26.730Z,437.35
2022-12-18T02:00:37.796Z,437.36
2022-12-18T02:00:49.857Z,437.36
2022-12-18T02:01:01.856Z,437.33
2022-12-18T02:01:13.924Z,437.30
2022-12-18T02:01:25.944Z,437.31
2022-12-18T02:01:37.912Z,437.27
2022-12-18T02:01:48.868Z,437.20
2022-12-18T02:02:00.956Z,437.17
2022-12-18T02:02:11.808Z,437.16
2022-12-18T02:02:22.849Z,437.11
2022-12-18T02:02:33.859Z,437.07
2022-12-18T02:02:44.890Z,437.07
2022-12-18T02:02:55.860Z,437.06
2022-12-18T02:03:06.855Z,436.98
2022-12-18T02:03:17.825Z,436.91
2022-12-18T02:03:29.854Z,436.92
2022-12-18T02:03:42.155Z,436.88
2022-12-18T02:03:53.750Z,436.89
2022-12-18T02:04:05.752Z,436.87
2022-12-18T02:04:17.767Z,436.85
2022-12-18T02:04:29.765Z,436.81
2022-12-18T02:04:46.341Z,436.79
2022-12-18T02:04:53.770Z,436.78
2022-12-18T02:05:04.756Z,436.75
2022-12-18T02:05:16.761Z,436.76
2022-12-18T02:05:28.776Z,436.80
2022-12-18T02:05:39.744Z,436.87
2022-12-18T02:05:51.761Z,436.84
2022-12-18T02:06:02.763Z,436.85
2022-12-18T02:06:14.751Z,436.89
2022-12-18T02:06:25.752Z,436.91
2022-12-18T02:06:37.754Z,436.92
2022-12-18T02:06:49.760Z,436.97
2022-12-18T02:07:00.730Z,436.98
2022-12-18T02:07:11.725Z,437.02
2022-12-18T02:07:22.796Z,437.07
2022-12-18T02:07:34.804Z,437.10
2022-12-18T02:07:46.801Z,437.13
2022-12-18T02:07:58.806Z,437.18
2022-12-18T02:08:10.813Z,437.23
2022-12-18T02:08:22.823Z,437.28
2022-12-18T02:08:34.723Z,437.34
2022-12-18T02:08:45.788Z,437.41
2022-12-18T02:08:57.801Z,437.47
2022-12-18T02:09:09.801Z,437.53
2022-12-18T02:09:21.814Z,437.61
2022-12-18T02:09:33.811Z,437.63
2022-12-18T02:09:45.818Z,437.68
2022-12-18T02:09:56.780Z,437.73
2022-12-18T02:10:08.792Z,437.76
2022-12-18T02:10:19.775Z,437.84
2022-12-18T02:10:31.777Z,437.88
2022-12-18T02:10:43.794Z,437.94
2022-12-18T02:10:55.807Z,437.98
2022-12-18T02:11:07.814Z,438.06
2022-12-18T02:11:19.822Z,438.11
2022-12-18T02:11:31.754Z,438.19
2022-12-18T02:11:43.760Z,438.29
2022-12-18T02:11:54.819Z,438.35
2022-12-18T02:12:06.824Z,438.39
2022-12-18T02:12:18.820Z,438.41
2022-12-18T02:12:30.817Z,438.51
2022-12-18T02:12:42.916Z,438.61
2022-12-18T02:12:54.823Z,438.65
2022-12-18T02:13:06.815Z,438.67
2022-12-18T02:13:18.773Z,438.75
2022-12-18T02:13:29.766Z,438.81
2022-12-18T02:13:41.951Z,438.83
2022-12-18T02:13:53.745Z,438.84
2022-12-18T02:14:04.791Z,438.86
2022-12-18T02:14:16.789Z,438.96
2022-12-18T02:14:27.753Z,438.97
2022-12-18T02:14:39.767Z,438.98
2022-12-18T02:14:51.776Z,439.02
2022-12-18T02:15:02.764Z,439.03
2022-12-18T02:15:14.770Z,439.02
2022-12-18T02:15:26.773Z,439.06
2022-12-18T02:15:38.776Z,439.05
2022-12-18T02:15:49.749Z,439.07
2022-12-18T02:16:01.749Z,439.07
2022-12-18T02:16:13.814Z,439.11
2022-12-18T02:16:24.871Z,439.08
2022-12-18T02:16:36.841Z,439.07
2022-12-18T02:16:48.856Z,439.08
2022-12-18T02:17:00.849Z,439.08
2022-12-18T02:17:12.820Z,439.10
2022-12-18T02:17:24.737Z,439.10
2022-12-18T02:17:35.763Z,439.07
2022-12-18T02:17:47.786Z,439.06
2022-12-18T02:17:59.796Z,439.08
2022-12-18T02:18:11.803Z,439.07
2022-12-18T02:18:23.822Z,439.11
2022-12-18T02:18:35.724Z,439.12
2022-12-18T02:18:46.801Z,439.14
2022-12-18T02:18:58.801Z,439.15
2022-12-18T02:19:09.776Z,439.18
2022-12-18T02:19:20.818Z,439.23
2022-12-18T02:19:32.735Z,439.22
2022-12-18T02:19:43.792Z,439.22
2022-12-18T02:19:55.794Z,439.28
2022-12-18T02:20:07.806Z,439.26
2022-12-18T02:20:19.807Z,439.24
2022-12-18T02:20:30.773Z,439.24
2022-12-18T02:20:42.774Z,439.29
2022-12-18T02:20:54.808Z,439.33
2022-12-18T02:21:05.745Z,439.38
2022-12-18T02:21:16.739Z,439.42
2022-12-18T02:21:28.760Z,439.40
2022-12-18T02:21:39.726Z,439.42
2022-12-18T02:21:50.775Z,439.44
2022-12-18T02:22:02.760Z,439.44
2022-12-18T02:22:13.821Z,439.49
2022-12-18T02:22:25.732Z,439.47
2022-12-18T02:22:36.795Z,439.49
2022-12-18T02:22:48.795Z,439.48
2022-12-18T02:23:00.804Z,439.50
2022-12-18T02:23:12.796Z,439.51
2022-12-18T02:23:24.801Z,439.52
2022-12-18T02:23:37.250Z,439.52
2022-12-18T02:23:48.792Z,439.54
2022-12-18T02:24:00.799Z,439.59
2022-12-18T02:24:11.768Z,439.59
2022-12-18T02:24:23.767Z,439.60
2022-12-18T02:24:35.766Z,439.64
2022-12-18T02:24:46.760Z,439.63
2022-12-18T02:24:57.742Z,439.65
2022-12-18T02:25:08.781Z,439.66
2022-12-18T02:25:20.783Z,439.65
2022-12-18T02:25:32.780Z,439.67
2022-12-18T02:25:44.786Z,439.69
2022-12-18T02:25:55.757Z,439.66
2022-12-18T02:26:07.760Z,439.65
2022-12-18T02:26:19.755Z,439.66